Wilmington, VT (05363)

4:18 AM EDT on July 05, 2015 (GMT -0400)
Wastewater Treatment Plant | | Change Station
CLOSE
Current Station
Personal Weather Station
Location: Wilmington, VT
Elevation: 1500 ft
Nearby Weather Stations

Elev 1500 ft 42.87 °N, 72.88 °W | Updated 2 minutes ago

Fog
Fog
54.1 °F
Feels Like 54.1 °F
N
0.0
Wind Variable Wind from ESE
Gusts 1.0 mph

Today
High -- | Low -- °F
--% Chance of Precip.
Yesterday
High -- | Low -- °F
Precip. -- in
5:18 AM 8:33 PM
Waning Gibbous, 86% visible
Pressure 30.06 in
Visibility 0.5 miles
Clouds
Dew Point 54 °F
Humidity 99%
Rainfall 0.00 in
Snow Depth Not available.
UV Not available.
Pollen 1.00 out of 12
Air Quality Not available.
Flu Activity Not available.
SPECI KDDH 050811Z AUTO 00000KT 1/2SM FG VV002 11/11 A3006 RMK AO2 T01110106 $

More Conditions Fewer Conditions

Pressure 30.06 in
Visibility 0.5 miles
Clouds
Dew Point 54 °F
Humidity 99%
Rainfall 0.00 in
Snow Depth Not available.
UV Not available.
Pollen 1.00 out of 12
Air Quality Not available.
Flu Activity Not available.
SPECI KDDH 050811Z AUTO 00000KT 1/2SM FG VV002 11/11 A3006 RMK AO2 T01110106 $

More Conditions Fewer Conditions

10-Day Weather Forecast

×

Almanac

Astronomy

Jul. 05, 2015 Rise Set
Actual Time
Civil Twilight
Nautical Twilight
Astronomical Twilight
Moon
Length of Visible Light
Length of Day
Tomorrow will be .
, % of the Moon is Illuminated

Today's Extremes

State Highs State Lows

Community

WunderPhotos

Upload Photos

1,835,215 photos uploaded!

WunderBlogs® & News

Nearby

Air Quality

  Air Quality AQ Index Pollutant
Not available.

Snow Depth

Station Depth Elevation

Earthquake Activity

City Distance Mag. Time & Date
Minimum magnitude displayed is 2.5.

Coastal Water Temperatures

Place Temperature

Stations

Nearby Weather Stations

Station Location Temp. Windchill Dew Point Humidity Wind Precip. Elev Updated Type